sensor_id;sensor_type;location;lat;lon;timestamp;pressure;altitude;pressure_sealevel;temperature;humidity
75913;BME280;64592;52.168;21.040;2023-12-20T00:00:07;99538.69;;;5.58;100.00
75913;BME280;64592;52.168;21.040;2023-12-20T00:05:10;99530.75;;;5.56;100.00
75913;BME280;64592;52.168;21.040;2023-12-20T00:10:12;99524.59;;;5.56;100.00
75913;BME280;64592;52.168;21.040;2023-12-20T00:15:14;99519.03;;;5.59;100.00
75913;BME280;64592;52.168;21.040;2023-12-20T00:20:17;99523.50;;;5.58;100.00
75913;BME280;64592;52.168;21.040;2023-12-20T00:25:18;99521.69;;;5.59;100.00
75913;BME280;64592;52.168;21.040;2023-12-20T00:30:21;99517.09;;;5.61;100.00
75913;BME280;64592;52.168;21.040;2023-12-20T00:35:24;99510.03;;;5.60;100.00
75913;BME280;64592;52.168;21.040;2023-12-20T00:40:26;99505.66;;;5.59;100.00
75913;BME280;64592;52.168;21.040;2023-12-20T00:45:27;99509.84;;;5.63;100.00
75913;BME280;64592;52.168;21.040;2023-12-20T00:50:30;99500.75;;;5.65;100.00
75913;BME280;64592;52.168;21.040;2023-12-20T00:55:32;99499.03;;;5.64;100.00
75913;BME280;64592;52.168;21.040;2023-12-20T01:00:34;99493.03;;;5.61;100.00
75913;BME280;64592;52.168;21.040;2023-12-20T01:05:37;99484.78;;;5.64;100.00
75913;BME280;64592;52.168;21.040;2023-12-20T01:10:38;99483.94;;;5.63;100.00
75913;BME280;64592;52.168;21.040;2023-12-20T01:15:40;99482.88;;;5.66;100.00
75913;BME280;64592;52.168;21.040;2023-12-20T01:20:43;99486.75;;;5.62;100.00
75913;BME280;64592;52.168;21.040;2023-12-20T01:25:45;99475.09;;;5.63;100.00
75913;BME280;64592;52.168;21.040;2023-12-20T01:30:46;99478.59;;;5.63;100.00
75913;BME280;64592;52.168;21.040;2023-12-20T01:35:49;99471.03;;;5.70;100.00
75913;BME280;64592;52.168;21.040;2023-12-20T01:40:51;99468.56;;;5.67;100.00
75913;BME280;64592;52.168;21.040;2023-12-20T01:45:54;99462.44;;;5.65;100.00
75913;BME280;64592;52.168;21.040;2023-12-20T01:50:59;99458.06;;;5.64;100.00
75913;BME280;64592;52.168;21.040;2023-12-20T01:56:01;99457.22;;;5.63;100.00
75913;BME280;64592;52.168;21.040;2023-12-20T02:01:03;99450.81;;;5.66;100.00
75913;BME280;64592;52.168;21.040;2023-12-20T02:06:07;99450.69;;;5.67;100.00
75913;BME280;64592;52.168;21.040;2023-12-20T02:11:09;99442.78;;;5.66;100.00
75913;BME280;64592;52.168;21.040;2023-12-20T02:16:11;99437.44;;;5.66;100.00
75913;BME280;64592;52.168;21.040;2023-12-20T02:21:14;99436.47;;;5.67;100.00
75913;BME280;64592;52.168;21.040;2023-12-20T02:26:17;99434.75;;;5.66;100.00
75913;BME280;64592;52.168;21.040;2023-12-20T02:31:20;99425.25;;;5.62;100.00
75913;BME280;64592;52.168;21.040;2023-12-20T02:36:22;99414.56;;;5.62;100.00
75913;BME280;64592;52.168;21.040;2023-12-20T02:41:25;99419.78;;;5.63;100.00
75913;BME280;64592;52.168;21.040;2023-12-20T02:46:27;99410.06;;;5.62;100.00
75913;BME280;64592;52.168;21.040;2023-12-20T02:51:29;99410.19;;;5.61;100.00
75913;BME280;64592;52.168;21.040;2023-12-20T02:56:32;99408.47;;;5.60;100.00
75913;BME280;64592;52.168;21.040;2023-12-20T03:01:34;99403.13;;;5.60;100.00
75913;BME280;64592;52.168;21.040;2023-12-20T03:06:36;99408.25;;;5.63;100.00
75913;BME280;64592;52.168;21.040;2023-12-20T03:11:39;99400.97;;;5.65;100.00
75913;BME280;64592;52.168;21.040;2023-12-20T03:16:40;99391.97;;;5.66;100.00
75913;BME280;64592;52.168;21.040;2023-12-20T03:21:42;99386.44;;;5.69;100.00
75913;BME280;64592;52.168;21.040;2023-12-20T03:26:45;99393.69;;;5.67;100.00
75913;BME280;64592;52.168;21.040;2023-12-20T03:31:47;99386.34;;;5.70;100.00
75913;BME280;64592;52.168;21.040;2023-12-20T03:36:48;99383.97;;;5.66;100.00
75913;BME280;64592;52.168;21.040;2023-12-20T03:41:51;99377.66;;;5.67;100.00
75913;BME280;64592;52.168;21.040;2023-12-20T03:46:53;99380.44;;;5.65;100.00
75913;BME280;64592;52.168;21.040;2023-12-20T03:51:54;99374.88;;;5.68;100.00
75913;BME280;64592;52.168;21.040;2023-12-20T03:56:57;99389.53;;;5.63;100.00
75913;BME280;64592;52.168;21.040;2023-12-20T04:01:59;99376.19;;;5.63;100.00
75913;BME280;64592;52.168;21.040;2023-12-20T04:07:01;99363.78;;;5.62;100.00
75913;BME280;64592;52.168;21.040;2023-12-20T04:12:04;99378.09;;;5.61;100.00
75913;BME280;64592;52.168;21.040;2023-12-20T04:17:07;99375.44;;;5.61;100.00
75913;BME280;64592;52.168;21.040;2023-12-20T04:22:09;99385.03;;;5.63;100.00
75913;BME280;64592;52.168;21.040;2023-12-20T04:27:11;99375.31;;;5.62;100.00
75913;BME280;64592;52.168;21.040;2023-12-20T04:32:13;99376.28;;;5.61;100.00
75913;BME280;64592;52.168;21.040;2023-12-20T04:37:15;99370.69;;;5.64;100.00
75913;BME280;64592;52.168;21.040;2023-12-20T04:42:18;99373.38;;;5.64;100.00
75913;BME280;64592;52.168;21.040;2023-12-20T04:47:19;99376.91;;;5.65;100.00
75913;BME280;64592;52.168;21.040;2023-12-20T04:52:22;99376.81;;;5.66;100.00
75913;BME280;64592;52.168;21.040;2023-12-20T04:57:25;99379.56;;;5.65;100.00
75913;BME280;64592;52.168;21.040;2023-12-20T05:02:26;99365.50;;;5.63;100.00
75913;BME280;64592;52.168;21.040;2023-12-20T05:07:28;99367.59;;;5.58;100.00
75913;BME280;64592;52.168;21.040;2023-12-20T05:12:31;99359.69;;;5.56;100.00
75913;BME280;64592;52.168;21.040;2023-12-20T05:17:33;99360.56;;;5.57;100.00
75913;BME280;64592;52.168;21.040;2023-12-20T05:22:35;99356.91;;;5.58;100.00
75913;BME280;64592;52.168;21.040;2023-12-20T05:27:38;99363.53;;;5.65;100.00
75913;BME280;64592;52.168;21.040;2023-12-20T05:32:40;99351.56;;;5.58;100.00
75913;BME280;64592;52.168;21.040;2023-12-20T05:37:41;99349.84;;;5.57;100.00
75913;BME280;64592;52.168;21.040;2023-12-20T05:42:44;99358.00;;;5.55;100.00
75913;BME280;64592;52.168;21.040;2023-12-20T05:47:46;99356.72;;;5.61;100.00
75913;BME280;64592;52.168;21.040;2023-12-20T05:52:47;99353.06;;;5.62;100.00
75913;BME280;64592;52.168;21.040;2023-12-20T05:57:50;99364.50;;;5.64;100.00
75913;BME280;64592;52.168;21.040;2023-12-20T06:02:52;99347.72;;;5.62;100.00
75913;BME280;64592;52.168;21.040;2023-12-20T06:07:54;99355.84;;;5.60;100.00
75913;BME280;64592;52.168;21.040;2023-12-20T06:12:59;99353.28;;;5.59;100.00
75913;BME280;64592;52.168;21.040;2023-12-20T06:18:01;99355.00;;;5.60;100.00
75913;BME280;64592;52.168;21.040;2023-12-20T06:23:02;99357.78;;;5.58;100.00
75913;BME280;64592;52.168;21.040;2023-12-20T06:28:06;99358.97;;;5.54;100.00
75913;BME280;64592;52.168;21.040;2023-12-20T06:33:08;99359.81;;;5.55;100.00
75913;BME280;64592;52.168;21.040;2023-12-20T06:38:10;99358.13;;;5.54;100.00
75913;BME280;64592;52.168;21.040;2023-12-20T06:43:13;99358.97;;;5.54;100.00
75913;BME280;64592;52.168;21.040;2023-12-20T06:48:15;99357.25;;;5.53;100.00
75913;BME280;64592;52.168;21.040;2023-12-20T06:53:16;99353.53;;;5.56;100.00
75913;BME280;64592;52.168;21.040;2023-12-20T06:58:19;99352.34;;;5.47;100.00
75913;BME280;64592;52.168;21.040;2023-12-20T07:03:21;99357.56;;;5.48;100.00
75913;BME280;64592;52.168;21.040;2023-12-20T07:08:22;99353.06;;;5.49;100.00
75913;BME280;64592;52.168;21.040;2023-12-20T07:13:25;99356.50;;;5.51;100.00
75913;BME280;64592;52.168;21.040;2023-12-20T07:18:27;99362.50;;;5.55;100.00
75913;BME280;64592;52.168;21.040;2023-12-20T07:23:29;99356.41;;;5.53;100.00
75913;BME280;64592;52.168;21.040;2023-12-20T07:28:32;99367.94;;;5.53;100.00
75913;BME280;64592;52.168;21.040;2023-12-20T07:33:33;99367.84;;;5.55;100.00
75913;BME280;64592;52.168;21.040;2023-12-20T07:38:35;99360.88;;;5.52;100.00
75913;BME280;64592;52.168;21.040;2023-12-20T07:43:38;99366.56;;;5.47;100.00
75913;BME280;64592;52.168;21.040;2023-12-20T07:48:40;99365.28;;;5.53;100.00
75913;BME280;64592;52.168;21.040;2023-12-20T07:53:42;99363.22;;;5.57;100.00
75913;BME280;64592;52.168;21.040;2023-12-20T07:58:46;99363.97;;;5.59;100.00
75913;BME280;64592;52.168;21.040;2023-12-20T08:03:48;99365.28;;;5.53;100.00
75913;BME280;64592;52.168;21.040;2023-12-20T08:08:50;99364.41;;;5.53;100.00
75913;BME280;64592;52.168;21.040;2023-12-20T08:13:53;99363.56;;;5.52;100.00
75913;BME280;64592;52.168;21.040;2023-12-20T08:18:54;99358.31;;;5.51;100.00
75913;BME280;64592;52.168;21.040;2023-12-20T08:23:56;99354.78;;;5.50;100.00
75913;BME280;64592;52.168;21.040;2023-12-20T08:28:59;99352.88;;;5.52;100.00
75913;BME280;64592;52.168;21.040;2023-12-20T08:34:01;99360.03;;;5.52;100.00
75913;BME280;64592;52.168;21.040;2023-12-20T08:39:03;99361.84;;;5.51;100.00
75913;BME280;64592;52.168;21.040;2023-12-20T08:44:09;99359.69;;;5.56;100.00
75913;BME280;64592;52.168;21.040;2023-12-20T08:49:11;99359.06;;;5.53;100.00
75913;BME280;64592;52.168;21.040;2023-12-20T08:54:12;99358.56;;;5.47;100.00
75913;BME280;64592;52.168;21.040;2023-12-20T08:59:15;99355.03;;;5.47;100.00
75913;BME280;64592;52.168;21.040;2023-12-20T09:04:19;99346.88;;;5.48;100.00
75913;BME280;64592;52.168;21.040;2023-12-20T09:09:20;99339.59;;;5.51;100.00
75913;BME280;64592;52.168;21.040;2023-12-20T09:14:23;99339.59;;;5.51;100.00
75913;BME280;64592;52.168;21.040;2023-12-20T09:19:25;99335.00;;;5.53;100.00
75913;BME280;64592;52.168;21.040;2023-12-20T09:24:26;99325.28;;;5.52;100.00
75913;BME280;64592;52.168;21.040;2023-12-20T09:29:29;99312.78;;;5.52;100.00
75913;BME280;64592;52.168;21.040;2023-12-20T09:34:31;99309.25;;;5.52;100.00
75913;BME280;64592;52.168;21.040;2023-12-20T09:39:33;99303.03;;;5.51;100.00
75913;BME280;64592;52.168;21.040;2023-12-20T09:44:36;99305.81;;;5.50;100.00
75913;BME280;64592;52.168;21.040;2023-12-20T09:49:42;99298.44;;;5.53;100.00
75913;BME280;64592;52.168;21.040;2023-12-20T09:54:45;99299.41;;;5.52;100.00
75913;BME280;64592;52.168;21.040;2023-12-20T09:59:50;99291.75;;;5.47;100.00
75913;BME280;64592;52.168;21.040;2023-12-20T10:04:52;99287.88;;;5.52;100.00
75913;BME280;64592;52.168;21.040;2023-12-20T10:09:54;99290.09;;;5.58;100.00
75913;BME280;64592;52.168;21.040;2023-12-20T10:14:59;99293.72;;;5.57;100.00
75913;BME280;64592;52.168;21.040;2023-12-20T10:20:00;99293.00;;;5.55;100.00
75913;BME280;64592;52.168;21.040;2023-12-20T10:25:03;99286.69;;;5.56;100.00
75913;BME280;64592;52.168;21.040;2023-12-20T10:30:07;99283.38;;;5.52;100.00
75913;BME280;64592;52.168;21.040;2023-12-20T10:35:09;99276.00;;;5.56;100.00
75913;BME280;64592;52.168;21.040;2023-12-20T10:40:12;99276.13;;;5.54;100.00
75913;BME280;64592;52.168;21.040;2023-12-20T10:45:16;99265.53;;;5.53;100.00
75913;BME280;64592;52.168;21.040;2023-12-20T10:50:19;99271.72;;;5.53;100.00
75913;BME280;64592;52.168;21.040;2023-12-20T10:55:21;99264.56;;;5.54;100.00
75913;BME280;64592;52.168;21.040;2023-12-20T11:00:24;99264.22;;;5.58;100.00
75913;BME280;64592;52.168;21.040;2023-12-20T11:05:31;99255.59;;;5.55;100.00
75913;BME280;64592;52.168;21.040;2023-12-20T11:10:39;99247.03;;;5.50;100.00
75913;BME280;64592;52.168;21.040;2023-12-20T11:15:46;99239.53;;;5.55;100.00
75913;BME280;64592;52.168;21.040;2023-12-20T11:20:48;99231.38;;;5.56;100.00
75913;BME280;64592;52.168;21.040;2023-12-20T11:25:53;99225.22;;;5.56;100.00
75913;BME280;64592;52.168;21.040;2023-12-20T11:30:57;99226.91;;;5.57;100.00
75913;BME280;64592;52.168;21.040;2023-12-20T11:35:59;99216.34;;;5.55;100.00
75913;BME280;64592;52.168;21.040;2023-12-20T11:41:05;99207.47;;;5.55;100.00
75913;BME280;64592;52.168;21.040;2023-12-20T11:46:09;99199.56;;;5.53;100.00
75913;BME280;64592;52.168;21.040;2023-12-20T11:51:11;99204.06;;;5.53;100.00
75913;BME280;64592;52.168;21.040;2023-12-20T11:56:13;99191.19;;;5.58;100.00
75913;BME280;64592;52.168;21.040;2023-12-20T12:01:17;99188.75;;;5.55;100.00
75913;BME280;64592;52.168;21.040;2023-12-20T12:06:18;99196.03;;;5.53;100.00
75913;BME280;64592;52.168;21.040;2023-12-20T12:11:20;99181.72;;;5.54;100.00
75913;BME280;64592;52.168;21.040;2023-12-20T12:16:24;99199.22;;;5.58;100.00
75913;BME280;64592;52.168;21.040;2023-12-20T12:21:26;99183.75;;;5.50;100.00
75913;BME280;64592;52.168;21.040;2023-12-20T12:26:30;99174.16;;;5.47;100.00
75913;BME280;64592;52.168;21.040;2023-12-20T12:31:33;99171.59;;;5.46;100.00
75913;BME280;64592;52.168;21.040;2023-12-20T12:36:35;99174.16;;;5.47;100.00
75913;BME280;64592;52.168;21.040;2023-12-20T12:41:37;99162.19;;;5.40;100.00
75913;BME280;64592;52.168;21.040;2023-12-20T12:46:40;99148.09;;;5.38;100.00
75913;BME280;64592;52.168;21.040;2023-12-20T12:51:42;99158.28;;;5.33;100.00
75913;BME280;64592;52.168;21.040;2023-12-20T12:56:44;99162.41;;;5.37;100.00
75913;BME280;64592;52.168;21.040;2023-12-20T13:01:49;99158.28;;;5.33;100.00
75913;BME280;64592;52.168;21.040;2023-12-20T13:06:51;99154.22;;;5.28;100.00
75913;BME280;64592;52.168;21.040;2023-12-20T13:11:52;99166.72;;;5.27;100.00
75913;BME280;64592;52.168;21.040;2023-12-20T13:16:55;99159.44;;;5.29;100.00
75913;BME280;64592;52.168;21.040;2023-12-20T13:21:57;99162.13;;;5.29;100.00
75913;BME280;64592;52.168;21.040;2023-12-20T13:26:59;99161.16;;;5.30;100.00
75913;BME280;64592;52.168;21.040;2023-12-20T13:32:02;99157.84;;;5.27;100.00
75913;BME280;64592;52.168;21.040;2023-12-20T13:37:04;99153.34;;;5.27;100.00
75913;BME280;64592;52.168;21.040;2023-12-20T13:42:06;99156.88;;;5.28;100.00
75913;BME280;64592;52.168;21.040;2023-12-20T13:47:09;99155.31;;;5.25;100.00
75913;BME280;64592;52.168;21.040;2023-12-20T13:52:11;99137.47;;;5.26;100.00
75913;BME280;64592;52.168;21.040;2023-12-20T13:57:12;99146.44;;;5.25;100.00
75913;BME280;64592;52.168;21.040;2023-12-20T14:02:16;99148.16;;;5.26;100.00
75913;BME280;64592;52.168;21.040;2023-12-20T14:07:17;99142.81;;;5.26;100.00
75913;BME280;64592;52.168;21.040;2023-12-20T14:12:19;99136.59;;;5.25;100.00
75913;BME280;64592;52.168;21.040;2023-12-20T14:17:22;99143.88;;;5.23;100.00
75913;BME280;64592;52.168;21.040;2023-12-20T14:22:24;99160.34;;;5.17;100.00
75913;BME280;64592;52.168;21.040;2023-12-20T14:27:26;99163.03;;;5.17;100.00
75913;BME280;64592;52.168;21.040;2023-12-20T14:32:31;99161.31;;;5.16;100.00
75913;BME280;64592;52.168;21.040;2023-12-20T14:37:32;99158.66;;;5.16;100.00
75913;BME280;64592;52.168;21.040;2023-12-20T14:42:34;99161.41;;;5.15;100.00
75913;BME280;64592;52.168;21.040;2023-12-20T14:47:37;99166.16;;;5.11;100.00
75913;BME280;64592;52.168;21.040;2023-12-20T14:52:39;99160.16;;;5.07;100.00
75913;BME280;64592;52.168;21.040;2023-12-20T14:57:41;99170.09;;;5.05;100.00
75913;BME280;64592;52.168;21.040;2023-12-20T15:02:44;99169.56;;;5.00;100.00
75913;BME280;64592;52.168;21.040;2023-12-20T15:07:46;99163.16;;;5.03;100.00
75913;BME280;64592;52.168;21.040;2023-12-20T15:12:48;99168.50;;;5.03;100.00
75913;BME280;64592;52.168;21.040;2023-12-20T15:17:51;99147.56;;;4.97;100.00
75913;BME280;64592;52.168;21.040;2023-12-20T15:22:53;99148.75;;;4.93;100.00
75913;BME280;64592;52.168;21.040;2023-12-20T15:27:55;99149.50;;;4.95;100.00
75913;BME280;64592;52.168;21.040;2023-12-20T15:32:58;99141.25;;;4.98;100.00
75913;BME280;64592;52.168;21.040;2023-12-20T15:38:00;99143.31;;;4.94;100.00
75913;BME280;64592;52.168;21.040;2023-12-20T15:43:03;99135.31;;;4.94;100.00
75913;BME280;64592;52.168;21.040;2023-12-20T15:48:06;99126.66;;;4.91;100.00
75913;BME280;64592;52.168;21.040;2023-12-20T15:53:10;99126.75;;;4.89;100.00
75913;BME280;64592;52.168;21.040;2023-12-20T15:58:11;99127.50;;;4.91;100.00
75913;BME280;64592;52.168;21.040;2023-12-20T16:03:14;99116.22;;;4.88;100.00
75913;BME280;64592;52.168;21.040;2023-12-20T16:08:16;99102.63;;;4.91;100.00
75913;BME280;64592;52.168;21.040;2023-12-20T16:13:18;99107.00;;;4.92;100.00
75913;BME280;64592;52.168;21.040;2023-12-20T16:18:22;99093.66;;;4.92;100.00
75913;BME280;64592;52.168;21.040;2023-12-20T16:23:23;99109.34;;;4.96;100.00
75913;BME280;64592;52.168;21.040;2023-12-20T16:28:25;99104.84;;;4.97;100.00
75913;BME280;64592;52.168;21.040;2023-12-20T16:33:29;99105.59;;;4.99;100.00
75913;BME280;64592;52.168;21.040;2023-12-20T16:38:30;99102.91;;;4.99;100.00
75913;BME280;64592;52.168;21.040;2023-12-20T16:43:32;99101.84;;;5.01;100.00
75913;BME280;64592;52.168;21.040;2023-12-20T16:48:35;99109.22;;;4.98;100.00
75913;BME280;64592;52.168;21.040;2023-12-20T16:53:36;99095.75;;;4.99;100.00
75913;BME280;64592;52.168;21.040;2023-12-20T16:58:38;99086.91;;;4.99;100.00
75913;BME280;64592;52.168;21.040;2023-12-20T17:03:41;99093.19;;;4.98;100.00
75913;BME280;64592;52.168;21.040;2023-12-20T17:08:43;99095.66;;;5.01;100.00
75913;BME280;64592;52.168;21.040;2023-12-20T17:13:44;99091.19;;;5.01;100.00
75913;BME280;64592;52.168;21.040;2023-12-20T17:18:47;99095.00;;;4.97;100.00
75913;BME280;64592;52.168;21.040;2023-12-20T17:23:50;99097.59;;;4.99;100.00
75913;BME280;64592;52.168;21.040;2023-12-20T17:28:51;99073.03;;;4.94;100.00
75913;BME280;64592;52.168;21.040;2023-12-20T17:33:54;99085.63;;;4.92;100.00
75913;BME280;64592;52.168;21.040;2023-12-20T17:38:56;99057.03;;;4.94;100.00
75913;BME280;64592;52.168;21.040;2023-12-20T17:43:57;99062.56;;;4.91;100.00
75913;BME280;64592;52.168;21.040;2023-12-20T17:49:00;99044.84;;;4.90;100.00
75913;BME280;64592;52.168;21.040;2023-12-20T17:54:02;99060.44;;;4.96;100.00
75913;BME280;64592;52.168;21.040;2023-12-20T17:59:04;99051.69;;;4.94;100.00
75913;BME280;64592;52.168;21.040;2023-12-20T18:04:07;99038.31;;;4.94;100.00
75913;BME280;64592;52.168;21.040;2023-12-20T18:09:09;99029.47;;;4.93;100.00
75913;BME280;64592;52.168;21.040;2023-12-20T18:14:11;99026.91;;;4.92;100.00
75913;BME280;64592;52.168;21.040;2023-12-20T18:19:14;99018.16;;;4.90;100.00
75913;BME280;64592;52.168;21.040;2023-12-20T18:24:17;99020.09;;;4.88;100.00
75913;BME280;64592;52.168;21.040;2023-12-20T18:29:18;99019.25;;;4.87;100.00
75913;BME280;64592;52.168;21.040;2023-12-20T18:34:21;98999.81;;;4.85;100.00
75913;BME280;64592;52.168;21.040;2023-12-20T18:39:24;99016.03;;;4.82;100.00
75913;BME280;64592;52.168;21.040;2023-12-20T18:44:25;98988.50;;;4.82;100.00
75913;BME280;64592;52.168;21.040;2023-12-20T18:49:29;98991.16;;;4.82;100.00
75913;BME280;64592;52.168;21.040;2023-12-20T18:54:30;98999.06;;;4.83;100.00
75913;BME280;64592;52.168;21.040;2023-12-20T18:59:32;98992.16;;;4.81;100.00
75913;BME280;64592;52.168;21.040;2023-12-20T19:04:36;98999.91;;;4.84;100.00
75913;BME280;64592;52.168;21.040;2023-12-20T19:09:38;99001.00;;;4.81;100.00
75913;BME280;64592;52.168;21.040;2023-12-20T19:14:39;99011.56;;;4.83;100.00
75913;BME280;64592;52.168;21.040;2023-12-20T19:19:42;99018.47;;;4.61;100.00
75913;BME280;64592;52.168;21.040;2023-12-20T19:24:44;99034.31;;;4.39;100.00
75913;BME280;64592;52.168;21.040;2023-12-20T19:29:45;99045.66;;;4.17;100.00
75913;BME280;64592;52.168;21.040;2023-12-20T19:34:48;99046.84;;;3.88;100.00
75913;BME280;64592;52.168;21.040;2023-12-20T19:39:51;99049.25;;;3.53;100.00
75913;BME280;64592;52.168;21.040;2023-12-20T19:44:52;99088.03;;;3.44;100.00
75913;BME280;64592;52.168;21.040;2023-12-20T19:49:55;99052.63;;;3.30;100.00
75913;BME280;64592;52.168;21.040;2023-12-20T19:54:57;99033.53;;;3.23;100.00
75913;BME280;64592;52.168;21.040;2023-12-20T19:59:59;99050.47;;;3.22;100.00
75913;BME280;64592;52.168;21.040;2023-12-20T20:05:03;99044.28;;;3.22;100.00
75913;BME280;64592;52.168;21.040;2023-12-20T20:10:07;99050.28;;;3.25;100.00
75913;BME280;64592;52.168;21.040;2023-12-20T20:15:09;99062.16;;;3.20;100.00
75913;BME280;64592;52.168;21.040;2023-12-20T20:20:12;99055.16;;;3.19;100.00
75913;BME280;64592;52.168;21.040;2023-12-20T20:25:14;99057.25;;;3.13;100.00
75913;BME280;64592;52.168;21.040;2023-12-20T20:30:16;99056.63;;;3.10;100.00
75913;BME280;64592;52.168;21.040;2023-12-20T20:35:19;99065.47;;;3.10;100.00
75913;BME280;64592;52.168;21.040;2023-12-20T20:40:21;99066.06;;;3.01;100.00
75913;BME280;64592;52.168;21.040;2023-12-20T20:45:23;99059.78;;;3.02;100.00
75913;BME280;64592;52.168;21.040;2023-12-20T20:50:26;99046.31;;;2.91;100.00
75913;BME280;64592;52.168;21.040;2023-12-20T20:55:28;99062.50;;;2.88;100.00
75913;BME280;64592;52.168;21.040;2023-12-20T21:00:29;99051.84;;;2.88;100.00
75913;BME280;64592;52.168;21.040;2023-12-20T21:05:33;99059.06;;;2.86;100.00
75913;BME280;64592;52.168;21.040;2023-12-20T21:10:35;99061.72;;;2.86;100.00
75913;BME280;64592;52.168;21.040;2023-12-20T21:15:37;99069.13;;;2.95;100.00
75913;BME280;64592;52.168;21.040;2023-12-20T21:20:40;99061.69;;;3.00;100.00
75913;BME280;64592;52.168;21.040;2023-12-20T21:25:41;99049.13;;;3.02;100.00
75913;BME280;64592;52.168;21.040;2023-12-20T21:30:43;99056.72;;;3.08;100.00
75913;BME280;64592;52.168;21.040;2023-12-20T21:35:46;99064.69;;;3.08;100.00
75913;BME280;64592;52.168;21.040;2023-12-20T21:40:48;99066.19;;;3.12;100.00
75913;BME280;64592;52.168;21.040;2023-12-20T21:45:49;99064.94;;;3.18;100.00
75913;BME280;64592;52.168;21.040;2023-12-20T21:50:52;99064.44;;;3.26;100.00
75913;BME280;64592;52.168;21.040;2023-12-20T21:55:54;99070.50;;;3.28;100.00
75913;BME280;64592;52.168;21.040;2023-12-20T22:00:56;99084.56;;;3.30;100.00
75913;BME280;64592;52.168;21.040;2023-12-20T22:05:59;99082.25;;;3.38;100.00
75913;BME280;64592;52.168;21.040;2023-12-20T22:11:00;99083.56;;;3.45;100.00
75913;BME280;64592;52.168;21.040;2023-12-20T22:16:02;99092.50;;;3.44;100.00
75913;BME280;64592;52.168;21.040;2023-12-20T22:21:05;99081.94;;;3.42;100.00
75913;BME280;64592;52.168;21.040;2023-12-20T22:26:07;99077.81;;;3.51;100.00
75913;BME280;64592;52.168;21.040;2023-12-20T22:31:09;99079.00;;;3.60;100.00
75913;BME280;64592;52.168;21.040;2023-12-20T22:36:12;99088.59;;;3.62;100.00
75913;BME280;64592;52.168;21.040;2023-12-20T22:41:14;99096.38;;;3.65;100.00
75913;BME280;64592;52.168;21.040;2023-12-20T22:46:16;99093.72;;;3.65;100.00
75913;BME280;64592;52.168;21.040;2023-12-20T22:51:19;99091.72;;;3.69;100.00
75913;BME280;64592;52.168;21.040;2023-12-20T22:56:20;99093.44;;;3.70;100.00
75913;BME280;64592;52.168;21.040;2023-12-20T23:01:22;99085.19;;;3.60;100.00
75913;BME280;64592;52.168;21.040;2023-12-20T23:06:25;99092.66;;;3.55;100.00
75913;BME280;64592;52.168;21.040;2023-12-20T23:11:27;99081.22;;;3.53;100.00
75913;BME280;64592;52.168;21.040;2023-12-20T23:16:28;99080.47;;;3.51;100.00
75913;BME280;64592;52.168;21.040;2023-12-20T23:21:31;99068.97;;;3.50;100.00
75913;BME280;64592;52.168;21.040;2023-12-20T23:26:34;99069.72;;;3.53;100.00
75913;BME280;64592;52.168;21.040;2023-12-20T23:31:36;99072.06;;;3.57;100.00
75913;BME280;64592;52.168;21.040;2023-12-20T23:36:39;99055.44;;;3.54;100.00
75913;BME280;64592;52.168;21.040;2023-12-20T23:41:41;99060.69;;;3.55;100.00
75913;BME280;64592;52.168;21.040;2023-12-20T23:46:42;99044.47;;;3.58;100.00
75913;BME280;64592;52.168;21.040;2023-12-20T23:51:45;99040.31;;;3.54;100.00
75913;BME280;64592;52.168;21.040;2023-12-20T23:56:47;99049.03;;;3.56;100.00
